createdAt,value
2023-01-08T00:00:11.983Z,99304.34
2023-01-08T00:01:14.134Z,99294.97
2023-01-08T00:02:15.854Z,99274.31
2023-01-08T00:03:17.899Z,99285.31
2023-01-08T00:04:19.676Z,99290.59
2023-01-08T00:05:21.547Z,99279.41
2023-01-08T00:06:23.543Z,99268.81
2023-01-08T00:07:25.341Z,99274.75
2023-01-08T00:08:27.299Z,99275.66
2023-01-08T00:09:28.901Z,99260.16
2023-01-08T00:10:30.973Z,99268.66
2023-01-08T00:11:32.784Z,99264.38
2023-01-08T00:12:34.949Z,99267.81
2023-01-08T00:13:37.144Z,99264.59
2023-01-08T00:14:38.767Z,99265.50
2023-01-08T00:15:40.558Z,99268.25
2023-01-08T00:16:42.248Z,99266.41
2023-01-08T00:17:43.977Z,99266.47
2023-01-08T00:18:47.166Z,99267.34
2023-01-08T00:19:48.742Z,99269.09
2023-01-08T00:20:50.428Z,99268.81
2023-01-08T00:21:52.431Z,99271.28
2023-01-08T00:22:54.105Z,99253.16
2023-01-08T00:23:55.834Z,99277.44
2023-01-08T00:24:57.628Z,99274.59
2023-01-08T00:26:06.924Z,99265.72
2023-01-08T00:27:08.949Z,99258.50
2023-01-08T00:28:10.866Z,99272.88
2023-01-08T00:29:12.480Z,99270.38
2023-01-08T00:30:14.387Z,99269.16
2023-01-08T00:31:16.065Z,99268.25
2023-01-08T00:32:17.763Z,99260.47
2023-01-08T00:33:19.494Z,99258.56
2023-01-08T00:34:21.107Z,99258.56
2023-01-08T00:35:22.787Z,99252.34
2023-01-08T00:36:24.399Z,99245.97
2023-01-08T00:37:26.227Z,99244.28
2023-01-08T00:38:29.776Z,99243.16
2023-01-08T00:39:31.506Z,99246.47
2023-01-08T00:40:34.641Z,99247.38
2023-01-08T00:41:36.211Z,99249.94
2023-01-08T00:42:37.842Z,99250.09
2023-01-08T00:43:39.910Z,99263.19
2023-01-08T00:44:41.693Z,99256.22
2023-01-08T00:45:43.684Z,99256.41
2023-01-08T00:46:45.397Z,99249.66
2023-01-08T00:47:46.957Z,99243.66
2023-01-08T00:48:48.575Z,99248.66
2023-01-08T00:49:50.335Z,99238.97
2023-01-08T00:50:53.840Z,99243.44
2023-01-08T00:51:55.432Z,99230.28
2023-01-08T00:52:57.121Z,99230.81
2023-01-08T00:53:58.893Z,99229.63
2023-01-08T00:55:03.730Z,99230.25
2023-01-08T00:56:08.805Z,99227.72
2023-01-08T00:57:10.429Z,99221.50
2023-01-08T00:58:12.566Z,99221.56
2023-01-08T00:59:14.267Z,99226.03
2023-01-08T01:00:17.265Z,99216.66
2023-01-08T01:01:18.958Z,99221.25
2023-01-08T01:02:20.754Z,99221.38
2023-01-08T01:03:22.617Z,99225.16
2023-01-08T01:04:26.304Z,99227.06
2023-01-08T01:05:28.043Z,99222.06
2023-01-08T01:06:30.141Z,99223.00
2023-01-08T01:08:59.543Z,99222.59
2023-01-08T01:10:11.296Z,99219.22
2023-01-08T01:11:24.942Z,99219.34
2023-01-08T01:12:29.273Z,99221.34
2023-01-08T01:13:34.820Z,99214.81
2023-01-08T01:14:38.106Z,99227.88
2023-01-08T01:15:43.363Z,99218.78
2023-01-08T01:16:48.471Z,99227.31
2023-01-08T01:17:50.257Z,99223.84
2023-01-08T01:18:52.383Z,99220.38
2023-01-08T01:19:53.976Z,99212.88
2023-01-08T01:20:55.638Z,99219.06
2023-01-08T01:21:57.470Z,99214.06
2023-01-08T01:22:59.350Z,99211.81
2023-01-08T01:24:06.097Z,99210.19
2023-01-08T01:25:08.473Z,99216.47
2023-01-08T01:26:18.384Z,99205.28
2023-01-08T01:27:20.017Z,99207.13
2023-01-08T01:28:21.692Z,99209.16
2023-01-08T01:29:24.261Z,99207.41
2023-01-08T01:30:25.841Z,99211.06
2023-01-08T01:31:30.484Z,99214.44
2023-01-08T01:32:33.068Z,99223.97
2023-01-08T01:33:34.863Z,99216.91
2023-01-08T01:34:36.800Z,99224.59
2023-01-08T01:35:38.394Z,99214.00
2023-01-08T01:36:40.210Z,99208.19
2023-01-08T01:37:41.825Z,99213.31
2023-01-08T01:38:45.398Z,99209.09
2023-01-08T01:39:47.471Z,99206.56
2023-01-08T01:40:49.072Z,99210.03
2023-01-08T01:41:50.689Z,99214.38
2023-01-08T01:42:52.274Z,99213.63
2023-01-08T01:43:56.317Z,99207.63
2023-01-08T01:44:57.999Z,99215.38
2023-01-08T01:45:59.686Z,99174.97
2023-01-08T01:47:05.970Z,99221.44
2023-01-08T01:48:11.784Z,99217.00
2023-01-08T01:49:22.695Z,99209.09
2023-01-08T01:51:01.147Z,99202.97
2023-01-08T01:52:05.877Z,99213.44
2023-01-08T01:53:10.013Z,99210.06
2023-01-08T01:54:13.365Z,99205.91
2023-01-08T01:55:16.146Z,99203.31
2023-01-08T01:56:18.150Z,99192.09
2023-01-08T01:57:20.078Z,99194.06
2023-01-08T01:58:24.688Z,99202.03
2023-01-08T01:59:26.581Z,99190.78
2023-01-08T02:00:29.361Z,99169.41
2023-01-08T02:01:31.839Z,99169.28
2023-01-08T02:02:34.422Z,99187.75
2023-01-08T02:03:38.734Z,99187.56
2023-01-08T02:04:41.302Z,99187.75
2023-01-08T02:06:04.801Z,99186.13
2023-01-08T02:07:18.343Z,99180.25
2023-01-08T02:08:40.769Z,99179.41
2023-01-08T02:10:00.802Z,99177.38
2023-01-08T02:11:08.138Z,99181.16
2023-01-08T02:12:33.251Z,99177.94
2023-01-08T02:13:38.607Z,99171.09
2023-01-08T02:14:48.473Z,99159.31
2023-01-08T02:16:15.148Z,99171.09
2023-01-08T02:17:24.263Z,99165.16
2023-01-08T02:18:37.635Z,99168.91
2023-01-08T02:19:57.360Z,99165.66
2023-01-08T02:21:09.045Z,99157.28
2023-01-08T02:22:32.449Z,99171.09
2023-01-08T02:23:58.794Z,99171.09
2023-01-08T02:25:14.788Z,99165.94
2023-01-08T02:26:28.117Z,99162.50
2023-01-08T02:27:32.256Z,99167.56
2023-01-08T02:28:40.158Z,99164.16
2023-01-08T02:29:42.329Z,99166.66
2023-01-08T02:30:45.081Z,99160.50
2023-01-08T02:31:47.023Z,99169.19
2023-01-08T02:32:48.682Z,99161.53
2023-01-08T02:33:50.415Z,99161.22
2023-01-08T02:34:52.196Z,99164.59
2023-01-08T02:36:13.918Z,99164.59
2023-01-08T02:37:18.312Z,99162.94
2023-01-08T02:38:20.134Z,99157.78
2023-01-08T02:39:43.247Z,99155.03
2023-01-08T02:40:57.040Z,99150.38
2023-01-08T02:42:23.986Z,99144.41
2023-01-08T02:43:31.479Z,99144.47
2023-01-08T02:44:51.302Z,99147.00
2023-01-08T02:45:59.407Z,99145.31
2023-01-08T02:47:05.621Z,99142.78
2023-01-08T02:48:23.144Z,99141.16
2023-01-08T02:49:30.863Z,99135.94
2023-01-08T02:50:38.898Z,99128.19
2023-01-08T02:51:47.257Z,99122.22
2023-01-08T02:52:57.506Z,99133.19
2023-01-08T02:54:03.328Z,99133.19
2023-01-08T02:55:05.809Z,99129.66
2023-01-08T02:56:11.613Z,99124.44
2023-01-08T02:57:17.362Z,99115.72
2023-01-08T02:58:20.770Z,99118.81
2023-01-08T02:59:24.027Z,99119.66
2023-01-08T03:00:27.600Z,99122.97
2023-01-08T03:01:30.075Z,99110.16
2023-01-08T03:02:35.517Z,99113.53
2023-01-08T03:03:41.796Z,99117.00
2023-01-08T03:05:07.740Z,99113.59
2023-01-08T03:06:13.326Z,99115.97
2023-01-08T03:07:15.147Z,99107.34
2023-01-08T03:08:18.759Z,99104.66
2023-01-08T03:09:21.101Z,99109.72
2023-01-08T03:10:26.401Z,99102.38
2023-01-08T03:11:36.744Z,99101.59
2023-01-08T03:12:53.812Z,99100.75
2023-01-08T03:14:15.880Z,99103.56
2023-01-08T03:15:24.683Z,99102.03
2023-01-08T03:16:35.812Z,99101.19
2023-01-08T03:17:43.412Z,99099.50
2023-01-08T03:18:52.757Z,99096.13
2023-01-08T03:19:57.886Z,99092.72
2023-01-08T03:21:03.281Z,99095.41
2023-01-08T03:22:09.696Z,99098.88
2023-01-08T03:23:13.951Z,99094.66
2023-01-08T03:24:20.571Z,99092.91
2023-01-08T03:25:25.182Z,99097.25
2023-01-08T03:26:27.791Z,99094.66
2023-01-08T03:27:34.269Z,99098.94
2023-01-08T03:28:42.167Z,99091.19
2023-01-08T03:29:47.438Z,99095.41
2023-01-08T03:30:52.429Z,99092.69
2023-01-08T03:32:01.306Z,99090.63
2023-01-08T03:33:06.246Z,99095.19
2023-01-08T03:34:08.807Z,99095.81
2023-01-08T03:35:15.727Z,99099.19
2023-01-08T03:36:24.000Z,99095.81
2023-01-08T03:37:32.325Z,99101.03
2023-01-08T03:38:40.203Z,99094.81
2023-01-08T03:39:51.897Z,99099.81
2023-01-08T03:40:58.093Z,99097.22
2023-01-08T03:42:06.606Z,99094.44
2023-01-08T03:43:08.192Z,99096.75
2023-01-08T03:44:09.937Z,99088.94
2023-01-08T03:45:11.723Z,99095.81
2023-01-08T03:46:29.017Z,99089.69
2023-01-08T03:47:33.084Z,99090.47
2023-01-08T03:48:36.507Z,99102.59
2023-01-08T03:49:40.308Z,99099.00
2023-01-08T03:50:41.952Z,99089.56
2023-01-08T03:51:46.163Z,99108.59
2023-01-08T03:52:47.911Z,99102.44
2023-01-08T03:53:52.351Z,99095.69
2023-01-08T03:54:54.088Z,99097.16
2023-01-08T03:55:57.670Z,99097.22
2023-01-08T03:56:59.239Z,99110.25
2023-01-08T03:58:00.845Z,99106.63
2023-01-08T03:59:02.612Z,99113.38
2023-01-08T04:00:04.905Z,99112.38
2023-01-08T04:01:06.767Z,99112.38
2023-01-08T04:02:08.846Z,99114.97
2023-01-08T04:03:10.548Z,99115.13
2023-01-08T04:04:12.657Z,99110.13
2023-01-08T04:05:14.432Z,99120.03
2023-01-08T04:06:16.117Z,99114.84
2023-01-08T04:07:17.740Z,99123.47
2023-01-08T04:08:19.415Z,99123.72
2023-01-08T04:09:21.033Z,99111.78
2023-01-08T04:10:23.696Z,99100.19
2023-01-08T04:11:25.352Z,99107.16
2023-01-08T04:12:27.116Z,99109.94
2023-01-08T04:13:28.736Z,99110.06
2023-01-08T04:14:30.362Z,99118.78
2023-01-08T04:15:33.539Z,99105.84
2023-01-08T04:16:35.190Z,99119.72
2023-01-08T04:17:37.043Z,99123.00
2023-01-08T04:18:38.706Z,99121.41
2023-01-08T04:19:40.385Z,99113.78
2023-01-08T04:20:46.279Z,99118.16
2023-01-08T04:21:51.186Z,99118.38
2023-01-08T04:22:52.888Z,99122.00
2023-01-08T04:23:55.138Z,99114.31
2023-01-08T04:24:57.392Z,99120.44
2023-01-08T04:25:58.899Z,99120.44
2023-01-08T04:27:00.646Z,99127.22
2023-01-08T04:28:02.218Z,99125.28
2023-01-08T04:29:04.241Z,99117.56
2023-01-08T04:30:06.454Z,99120.75
2023-01-08T04:31:09.657Z,99126.91
2023-01-08T04:32:11.396Z,99120.72
2023-01-08T04:33:13.163Z,99139.81
2023-01-08T04:34:14.905Z,99127.56
2023-01-08T04:35:16.611Z,99141.13
2023-01-08T04:36:18.233Z,99130.56
2023-01-08T04:37:19.865Z,99135.84
2023-01-08T04:38:21.462Z,99134.16
2023-01-08T04:39:23.063Z,99131.84
2023-01-08T04:40:24.777Z,99126.84
2023-01-08T04:41:26.514Z,99128.69
2023-01-08T04:42:28.173Z,99137.28
2023-01-08T04:43:30.989Z,99138.91
2023-01-08T04:44:32.613Z,99137.22
2023-01-08T04:45:34.503Z,99126.84
2023-01-08T04:46:36.458Z,99126.00
2023-01-08T04:47:38.185Z,99138.19
2023-01-08T04:48:40.342Z,99126.31
2023-01-08T04:49:42.472Z,99124.84
2023-01-08T04:50:44.328Z,99119.84
2023-01-08T04:51:45.947Z,99124.56
2023-01-08T04:52:47.627Z,99119.44
2023-01-08T04:53:49.576Z,99116.13
2023-01-08T04:54:51.329Z,99111.81
2023-01-08T04:55:53.236Z,99117.16
2023-01-08T04:56:54.907Z,99114.72
2023-01-08T04:57:56.502Z,99117.25
2023-01-08T04:58:59.016Z,99118.25
2023-01-08T05:00:00.703Z,99113.16
2023-01-08T05:01:13.049Z,99112.47
2023-01-08T05:02:15.063Z,99110.84
2023-01-08T05:03:17.154Z,99115.38
2023-01-08T05:04:18.872Z,99108.53
2023-01-08T05:05:20.446Z,99113.66
2023-01-08T05:06:22.179Z,99115.59
2023-01-08T05:07:24.011Z,99111.28
2023-01-08T05:08:25.766Z,99113.19
2023-01-08T05:09:27.486Z,99108.88
2023-01-08T05:10:29.209Z,99116.69
2023-01-08T05:11:30.859Z,99105.50
2023-01-08T05:12:32.436Z,99107.38
2023-01-08T05:13:34.103Z,99109.19
2023-01-08T05:14:35.809Z,99104.88
2023-01-08T05:15:37.749Z,99101.63
2023-01-08T05:16:39.474Z,99106.84
2023-01-08T05:17:41.362Z,99108.66
2023-01-08T05:18:44.632Z,99107.81
2023-01-08T05:19:46.269Z,99102.81
2023-01-08T05:20:47.821Z,99103.59
2023-01-08T05:21:49.688Z,99094.78
2023-01-08T05:22:51.411Z,99104.44
2023-01-08T05:23:53.074Z,99105.50
2023-01-08T05:24:54.919Z,99102.97
2023-01-08T05:25:58.869Z,99100.50
2023-01-08T05:27:00.562Z,99103.31
2023-01-08T05:28:02.224Z,99109.28
2023-01-08T05:29:03.912Z,99112.03
2023-01-08T05:30:06.232Z,99111.22
2023-01-08T05:31:08.316Z,99105.16
2023-01-08T05:32:19.337Z,99102.47
2023-01-08T05:33:21.231Z,99092.69
2023-01-08T05:34:22.866Z,99097.13
2023-01-08T05:35:24.744Z,99095.38
2023-01-08T05:36:26.679Z,99091.19
2023-01-08T05:37:28.383Z,99090.28
2023-01-08T05:38:30.057Z,99093.88
2023-01-08T05:39:31.702Z,99098.38
2023-01-08T05:40:33.638Z,99088.78
2023-01-08T05:41:35.324Z,99099.97
2023-01-08T05:42:37.172Z,99091.47
2023-01-08T05:43:38.945Z,99082.75
2023-01-08T05:44:40.586Z,99091.47
2023-01-08T05:45:42.153Z,99095.84
2023-01-08T05:46:44.256Z,99093.22
2023-01-08T05:47:45.976Z,99095.06
2023-01-08T05:48:47.585Z,99095.78
2023-01-08T05:49:49.185Z,99094.06
2023-01-08T05:50:50.774Z,99090.63
2023-01-08T05:51:52.451Z,99092.31
2023-01-08T05:52:54.066Z,99092.31
2023-01-08T05:53:55.940Z,99087.97
2023-01-08T05:55:00.044Z,99093.19
2023-01-08T05:56:09.168Z,99083.56
2023-01-08T05:57:11.270Z,99082.69
2023-01-08T05:58:12.931Z,99088.78
2023-01-08T05:59:14.684Z,99089.63
2023-01-08T06:00:17.083Z,99085.28
2023-01-08T06:01:18.767Z,99080.97
2023-01-08T06:02:20.420Z,99074.00
2023-01-08T06:03:23.244Z,99078.31
2023-01-08T06:04:25.166Z,99081.91
2023-01-08T06:05:27.088Z,99073.16
2023-01-08T06:06:28.682Z,99075.84
2023-01-08T06:07:30.552Z,99081.06
2023-01-08T06:08:32.604Z,99083.56
2023-01-08T06:09:34.370Z,99080.16
2023-01-08T06:10:38.604Z,99085.41
2023-01-08T06:11:40.207Z,99081.06
2023-01-08T06:12:42.127Z,99086.94
2023-01-08T06:13:44.286Z,99080.06
2023-01-08T06:14:45.971Z,99080.97
2023-01-08T06:15:47.665Z,99080.97
2023-01-08T06:16:49.282Z,99074.72
2023-01-08T06:17:50.914Z,99071.97
2023-01-08T06:18:52.604Z,99076.41
2023-01-08T06:19:54.300Z,99079.88
2023-01-08T06:20:56.403Z,99079.94
2023-01-08T06:21:58.060Z,99082.59
2023-01-08T06:23:00.107Z,99070.50
2023-01-08T06:24:01.815Z,99085.16
2023-01-08T06:25:04.224Z,99085.16
2023-01-08T06:26:06.430Z,99085.00
2023-01-08T06:27:08.073Z,99085.16
2023-01-08T06:28:10.014Z,99080.56
2023-01-08T06:29:11.609Z,99081.50
2023-01-08T06:30:13.250Z,99078.66
2023-01-08T06:31:15.083Z,99084.78
2023-01-08T06:32:16.719Z,99082.25
2023-01-08T06:33:21.326Z,99077.13
2023-01-08T06:34:23.269Z,99078.72
2023-01-08T06:35:25.617Z,99075.28
2023-01-08T06:36:27.303Z,99084.72
2023-01-08T06:37:29.128Z,99084.72
2023-01-08T06:38:32.968Z,99085.63
2023-01-08T06:39:34.590Z,99091.34
2023-01-08T06:40:36.268Z,99088.81
2023-01-08T06:41:37.802Z,99089.66
2023-01-08T06:42:39.574Z,99080.00
2023-01-08T06:43:41.127Z,99082.53
2023-01-08T06:44:42.776Z,99079.91
2023-01-08T06:45:44.425Z,99080.00
2023-01-08T06:46:46.648Z,99069.22
2023-01-08T06:47:48.324Z,99076.84
2023-01-08T06:48:49.984Z,99067.38
2023-01-08T06:49:51.566Z,99079.56
2023-01-08T06:50:53.801Z,99072.59
2023-01-08T06:51:55.414Z,99070.34
2023-01-08T06:52:57.305Z,99074.56
2023-01-08T06:53:58.860Z,99077.25
2023-01-08T06:55:00.407Z,99076.47
2023-01-08T06:56:03.735Z,99073.16
2023-01-08T06:57:05.420Z,99048.72
2023-01-08T06:58:07.169Z,99054.28
2023-01-08T06:59:08.796Z,99066.81
2023-01-08T07:00:10.821Z,99073.03
2023-01-08T07:01:15.698Z,99079.00
2023-01-08T07:02:19.020Z,99081.47
2023-01-08T07:03:21.184Z,99072.72
2023-01-08T07:04:23.227Z,99077.03
2023-01-08T07:05:24.895Z,99071.88
2023-01-08T07:06:26.520Z,99078.06
2023-01-08T07:07:28.136Z,99067.72
2023-01-08T07:08:29.789Z,99064.28
2023-01-08T07:09:31.538Z,99064.97
2023-01-08T07:10:34.697Z,99068.66
2023-01-08T07:11:36.761Z,99071.88
2023-01-08T07:12:38.542Z,99084.84
2023-01-08T07:13:40.181Z,99066.59
2023-01-08T07:14:42.131Z,99070.13
2023-01-08T07:15:43.988Z,99070.19
2023-01-08T07:16:45.642Z,99068.44
2023-01-08T07:17:47.290Z,99064.22
2023-01-08T07:18:48.789Z,99068.50
2023-01-08T07:19:50.537Z,99075.34
2023-01-08T07:20:52.292Z,99064.13
2023-01-08T07:21:54.053Z,99073.72
2023-01-08T07:22:55.675Z,99072.03
2023-01-08T07:23:57.283Z,99071.19
2023-01-08T07:24:58.875Z,99074.44
2023-01-08T07:26:05.095Z,99081.47
2023-01-08T07:27:06.724Z,99087.59
2023-01-08T07:28:12.438Z,99086.91
2023-01-08T07:29:14.163Z,99070.47
2023-01-08T07:30:28.935Z,99081.75
2023-01-08T07:31:31.585Z,99081.75
2023-01-08T07:32:33.188Z,99080.06
2023-01-08T07:33:35.320Z,99083.50
2023-01-08T07:34:37.269Z,99082.31
2023-01-08T07:35:39.175Z,99079.00
2023-01-08T07:36:40.789Z,99088.22
2023-01-08T07:37:43.036Z,99086.94
2023-01-08T07:38:44.596Z,99084.41
2023-01-08T07:39:46.501Z,99085.31
2023-01-08T07:40:48.657Z,99081.03
2023-01-08T07:41:50.471Z,99080.31
2023-01-08T07:43:03.421Z,99085.63
2023-01-08T07:44:05.103Z,99079.91
2023-01-08T07:45:08.184Z,99089.13
2023-01-08T07:46:10.523Z,99089.13
2023-01-08T07:47:12.227Z,99087.59
2023-01-08T07:48:16.670Z,99085.00
2023-01-08T07:49:18.344Z,99090.00
2023-01-08T07:50:20.018Z,99090.75
2023-01-08T07:51:21.816Z,99090.63
2023-01-08T07:52:23.474Z,99087.16
2023-01-08T07:53:24.991Z,99081.88
2023-01-08T07:54:26.658Z,99087.16
2023-01-08T07:55:30.770Z,99068.50
2023-01-08T07:56:32.683Z,99089.09
2023-01-08T07:57:34.384Z,99076.19
2023-01-08T07:58:36.734Z,99082.72
2023-01-08T07:59:38.734Z,99087.72
2023-01-08T08:00:40.569Z,99085.28
2023-01-08T08:01:42.338Z,99074.03
2023-01-08T08:02:44.173Z,99084.56
2023-01-08T08:03:46.379Z,99081.19
2023-01-08T08:04:48.002Z,99079.56
2023-01-08T08:05:50.069Z,99078.72
2023-01-08T08:06:52.020Z,99079.63
2023-01-08T08:07:53.748Z,99079.63
2023-01-08T08:08:57.995Z,99072.72
2023-01-08T08:09:59.688Z,99070.25
2023-01-08T08:11:01.550Z,99072.72
2023-01-08T08:12:03.327Z,99075.47
2023-01-08T08:13:05.025Z,99067.72
2023-01-08T08:14:07.293Z,99073.72
2023-01-08T08:15:09.668Z,99068.44
2023-01-08T08:16:11.924Z,99069.34
2023-01-08T08:17:13.636Z,99061.66
2023-01-08T08:18:15.243Z,99065.97
2023-01-08T08:19:17.007Z,99069.47
2023-01-08T08:20:18.628Z,99076.25
2023-01-08T08:21:20.236Z,99056.41
2023-01-08T08:22:21.853Z,99060.44
2023-01-08T08:23:23.897Z,99067.59
2023-01-08T08:24:25.627Z,99064.13
2023-01-08T08:25:27.540Z,99071.09
2023-01-08T08:26:29.201Z,99067.59
2023-01-08T08:27:30.822Z,99062.59
2023-01-08T08:28:32.411Z,99066.75
2023-01-08T08:29:34.082Z,99065.13
2023-01-08T08:30:36.516Z,99072.72
2023-01-08T08:31:38.250Z,99070.06
2023-01-08T08:32:39.873Z,99069.34
2023-01-08T08:33:42.388Z,99071.06
2023-01-08T08:34:44.306Z,99074.56
2023-01-08T08:35:51.063Z,99070.13
2023-01-08T08:36:53.030Z,99068.28
2023-01-08T08:37:55.942Z,99077.88
2023-01-08T08:38:57.672Z,99074.34
2023-01-08T08:39:59.311Z,99077.81
2023-01-08T08:41:01.411Z,99069.22
2023-01-08T08:42:03.002Z,99070.13
2023-01-08T08:43:05.390Z,99071.88
2023-01-08T08:44:07.171Z,99071.81
2023-01-08T08:45:09.523Z,99069.34
2023-01-08T08:46:11.254Z,99070.13
2023-01-08T08:47:13.257Z,99074.44
2023-01-08T08:48:16.940Z,99076.09
2023-01-08T08:49:18.636Z,99076.09
2023-01-08T08:50:21.458Z,99064.91
2023-01-08T08:51:23.038Z,99073.28
2023-01-08T08:52:24.735Z,99070.75
2023-01-08T08:53:27.754Z,99077.81
2023-01-08T08:54:29.486Z,99072.44
2023-01-08T08:55:33.638Z,99081.94
2023-01-08T08:56:36.018Z,99079.41
2023-01-08T08:57:37.624Z,99076.88
2023-01-08T08:58:41.816Z,99072.59
2023-01-08T08:59:43.530Z,99069.84
2023-01-08T09:00:45.352Z,99075.84
2023-01-08T09:01:47.281Z,99075.66
2023-01-08T09:02:51.233Z,99073.13
2023-01-08T09:03:52.879Z,99075.75
2023-01-08T09:04:54.511Z,99075.75
2023-01-08T09:05:58.410Z,99066.94
2023-01-08T09:07:01.354Z,99074.75
2023-01-08T09:08:03.189Z,99081.66
2023-01-08T09:09:05.059Z,99084.25
2023-01-08T09:10:07.427Z,99084.47
2023-01-08T09:11:09.146Z,99055.00
2023-01-08T09:12:11.142Z,99083.16
2023-01-08T09:13:12.731Z,99079.41
2023-01-08T09:14:14.493Z,99086.31
2023-01-08T09:15:16.438Z,99092.28
2023-01-08T09:16:18.661Z,99088.88
2023-01-08T09:17:21.640Z,99095.69
2023-01-08T09:18:23.293Z,99090.53
2023-01-08T09:19:25.030Z,99092.47
2023-01-08T09:20:28.343Z,99097.81
2023-01-08T09:21:29.962Z,99093.66
2023-01-08T09:22:31.661Z,99100.50
2023-01-08T09:23:36.963Z,99099.78
2023-01-08T09:24:38.611Z,99102.34
2023-01-08T09:25:40.215Z,99110.00
2023-01-08T09:26:41.876Z,99100.56
2023-01-08T09:27:43.859Z,99101.34
2023-01-08T09:28:45.521Z,99109.09
2023-01-08T09:29:47.228Z,99108.38
2023-01-08T09:30:48.808Z,99105.84
2023-01-08T09:31:51.019Z,99105.75
2023-01-08T09:32:57.432Z,99104.00
2023-01-08T09:33:59.232Z,99097.13
2023-01-08T09:35:00.892Z,99102.34
2023-01-08T09:36:11.801Z,99109.09
2023-01-08T09:37:13.412Z,99101.28
2023-01-08T09:38:15.101Z,99113.88
2023-01-08T09:39:17.271Z,99111.19
2023-01-08T09:40:21.078Z,99104.28
2023-01-08T09:41:28.374Z,99097.38
2023-01-08T09:42:31.487Z,99107.72
2023-01-08T09:43:37.426Z,99109.44
2023-01-08T09:44:41.939Z,99109.28
2023-01-08T09:45:46.033Z,99112.59
2023-01-08T09:46:49.437Z,99105.63
2023-01-08T09:47:51.577Z,99112.53
2023-01-08T09:48:56.689Z,99107.22
2023-01-08T09:50:19.668Z,99105.31
2023-01-08T09:51:25.156Z,99114.84
2023-01-08T09:52:27.101Z,99110.63
2023-01-08T09:53:35.611Z,99118.34
2023-01-08T09:54:57.607Z,99113.84
2023-01-08T10:00:14.331Z,99108.00
2023-01-08T10:02:13.092Z,99098.19
2023-01-08T10:07:59.371Z,99085.03
2023-01-08T10:12:03.408Z,99092.53
2023-01-08T10:13:05.298Z,99082.19
2023-01-08T10:27:52.896Z,99086.00
2023-01-08T10:29:06.933Z,99073.41
2023-01-08T10:30:15.050Z,99072.34
2023-01-08T10:31:17.214Z,99076.63
2023-01-08T10:32:34.372Z,99068.44
2023-01-08T10:33:44.828Z,99062.31
2023-01-08T10:34:56.879Z,99060.06
2023-01-08T10:36:09.544Z,99063.28
2023-01-08T10:37:36.927Z,99044.84
2023-01-08T10:38:48.217Z,99071.13
2023-01-08T10:39:52.762Z,99065.06
2023-01-08T10:40:58.611Z,99064.16
2023-01-08T10:42:06.466Z,99061.53
2023-01-08T10:43:18.856Z,99068.44
2023-01-08T10:44:23.219Z,99064.19
2023-01-08T10:45:28.741Z,99073.88
2023-01-08T10:48:00.703Z,99051.53
2023-01-08T10:49:06.949Z,99064.28
2023-01-08T10:50:28.218Z,99062.66
2023-01-08T10:51:32.804Z,99050.47
2023-01-08T10:52:37.304Z,99037.88
2023-01-08T10:53:41.690Z,99060.41
2023-01-08T10:54:44.406Z,99043.25
2023-01-08T10:55:57.212Z,99057.38
2023-01-08T10:57:02.368Z,99045.03
2023-01-08T10:58:15.563Z,99037.88
2023-01-08T10:59:21.448Z,99036.75
2023-01-08T11:00:43.808Z,99033.81
2023-01-08T11:01:50.454Z,98999.00
2023-01-08T11:02:53.272Z,99000.19
2023-01-08T11:19:35.281Z,98944.81
2023-01-08T11:20:39.419Z,98956.72
2023-01-08T11:21:41.249Z,98957.66
2023-01-08T11:22:43.080Z,98953.56
2023-01-08T11:23:45.282Z,98948.31
2023-01-08T11:24:49.445Z,98950.69
2023-01-08T11:26:05.281Z,98947.06
2023-01-08T11:27:36.291Z,98942.09
2023-01-08T11:29:00.475Z,98944.16
2023-01-08T11:30:06.615Z,98939.84
2023-01-08T11:31:18.031Z,98921.22
2023-01-08T11:32:41.387Z,98921.22
2023-01-08T11:33:47.696Z,98931.50
2023-01-08T11:34:57.327Z,98936.53
2023-01-08T11:36:10.375Z,98924.44
2023-01-08T11:37:36.366Z,98911.03
2023-01-08T11:38:38.581Z,98882.13
2023-01-08T11:39:40.465Z,98909.56
2023-01-08T11:41:09.249Z,98909.47
2023-01-08T11:42:29.704Z,98884.59
2023-01-08T11:43:47.362Z,98895.63
2023-01-08T11:45:00.712Z,98894.56
2023-01-08T11:46:42.302Z,98893.69
2023-01-08T11:48:19.541Z,98905.69
2023-01-08T11:49:44.662Z,98897.44
2023-01-08T11:51:04.620Z,98889.25
2023-01-08T11:52:45.248Z,98888.84
2023-01-08T11:54:01.900Z,98885.63
2023-01-08T11:55:32.275Z,98892.91
2023-01-08T11:56:57.274Z,98887.59
2023-01-08T11:58:39.404Z,98888.34
2023-01-08T12:00:15.279Z,98885.47
2023-01-08T12:01:43.642Z,98887.91
2023-01-08T12:02:56.115Z,98886.81
2023-01-08T12:04:23.789Z,98880.38
2023-01-08T12:05:26.633Z,98879.00
2023-01-08T12:06:32.819Z,98879.72
2023-01-08T12:07:50.244Z,98862.19
2023-01-08T12:09:29.255Z,98886.09
2023-01-08T12:10:49.944Z,98876.31
2023-01-08T12:12:12.613Z,98885.94
2023-01-08T12:13:21.060Z,98890.41
2023-01-08T12:14:48.035Z,98871.03
2023-01-08T12:16:03.489Z,98892.44
2023-01-08T12:17:39.521Z,98885.63
2023-01-08T12:18:54.604Z,98891.69
2023-01-08T12:20:30.323Z,98888.81
2023-01-08T12:22:22.885Z,98879.38
2023-01-08T12:23:50.528Z,98875.31
2023-01-08T12:40:41.839Z,98873.31
2023-01-08T12:41:48.455Z,98865.75
2023-01-08T12:43:00.512Z,98864.56
2023-01-08T12:44:06.206Z,98865.13
2023-01-08T12:45:20.461Z,98855.50
2023-01-08T12:46:26.574Z,98867.94
2023-01-08T12:47:33.142Z,98861.69
2023-01-08T12:48:36.895Z,98863.28
2023-01-08T12:49:48.362Z,98854.31
2023-01-08T12:51:21.464Z,98846.09
2023-01-08T13:26:30.235Z,98808.84
2023-01-08T13:27:32.466Z,98810.44
2023-01-08T13:28:37.063Z,98808.56
2023-01-08T13:29:42.713Z,98814.56
2023-01-08T13:30:49.126Z,98801.56
2023-01-08T13:32:03.651Z,98815.41
2023-01-08T13:36:23.424Z,98814.50
2023-01-08T13:37:27.783Z,98810.72
2023-01-08T13:38:29.919Z,98806.22
2023-01-08T13:39:34.887Z,98813.50
2023-01-08T13:40:57.501Z,98808.25
2023-01-08T13:42:11.574Z,98808.41
2023-01-08T13:43:32.673Z,98803.44
2023-01-08T13:44:43.261Z,98806.72
2023-01-08T13:48:25.109Z,98797.69
2023-01-08T13:49:36.037Z,98793.38
2023-01-08T13:50:38.839Z,98799.03
2023-01-08T13:51:46.457Z,98794.81
2023-01-08T13:52:56.616Z,98788.94
2023-01-08T13:54:08.101Z,98789.22
2023-01-08T13:55:25.499Z,98786.91
2023-01-08T13:56:32.300Z,98787.13
2023-01-08T13:57:42.671Z,98789.00
2023-01-08T13:58:52.291Z,98789.38
2023-01-08T14:00:00.592Z,98776.19
2023-01-08T14:01:05.490Z,98780.53
2023-01-08T14:02:28.346Z,98769.53
2023-01-08T14:03:35.786Z,98770.44
2023-01-08T14:04:38.543Z,98771.19
2023-01-08T14:05:41.217Z,98777.72
2023-01-08T14:06:43.655Z,98765.75
2023-01-08T14:07:45.820Z,98761.13
2023-01-08T14:09:04.684Z,98773.50
2023-01-08T14:10:09.326Z,98770.34
2023-01-08T14:11:11.433Z,98764.59
2023-01-08T14:12:16.774Z,98764.78
2023-01-08T14:13:24.765Z,98768.25
2023-01-08T14:14:26.640Z,98762.88
2023-01-08T14:15:29.343Z,98759.59
2023-01-08T14:16:33.488Z,98759.88
2023-01-08T14:17:36.054Z,98766.16
2023-01-08T14:18:41.467Z,98761.22
2023-01-08T14:19:44.507Z,98757.31
2023-01-08T14:20:51.336Z,98752.25
2023-01-08T14:21:56.129Z,98763.13
2023-01-08T14:22:58.057Z,98751.16
2023-01-08T14:24:00.256Z,98756.88
2023-01-08T14:25:06.353Z,98745.84
2023-01-08T14:26:14.560Z,98753.69
2023-01-08T14:27:26.117Z,98756.59
2023-01-08T14:28:28.220Z,98755.13